Time;durP1;ratioP1;P1;durP2;ratioP2;P2;SDS_P1;SDS_P2;PMS_P1;PMS_P2;Temp;Humidity;BMP_temperature;BMP_pressure;BME280_temperature;BME280_humidity;BME280_pressure;Samples;Min_cycle;Max_cycle;Signal;HPM_P1;HPM_P2
2021/09/09 00:00:45;;;;;;;4.85;1.90;;;18.40;67.80;;;;;;5083913;28;20011;-68
2021/09/09 00:03:13;;;;;;;3.60;2.13;;;18.50;68.80;;;;;;5108895;28;20023;-63
2021/09/09 00:05:40;;;;;;;2.80;1.80;;;18.60;65.60;;;;;;5107890;28;20020;-66
2021/09/09 00:08:08;;;;;;;7.78;1.85;;;18.60;67.50;;;;;;5108374;28;20038;-64
2021/09/09 00:10:35;;;;;;;5.05;1.77;;;18.70;65.00;;;;;;5099756;28;20043;-70
2021/09/09 00:13:03;;;;;;;5.85;1.55;;;18.70;64.30;;;;;;5107319;28;20045;-69
2021/09/09 00:15:31;;;;;;;3.35;1.85;;;18.80;65.80;;;;;;5109133;28;20024;-71
2021/09/09 00:17:58;;;;;;;6.50;2.65;;;18.90;64.00;;;;;;5108727;28;20020;-74
2021/09/09 00:20:26;;;;;;;4.65;1.65;;;18.90;64.50;;;;;;5103514;28;20075;-68
2021/09/09 00:22:53;;;;;;;4.35;1.58;;;19.00;64.10;;;;;;5105754;28;20034;-69
2021/09/09 00:25:21;;;;;;;2.35;1.58;;;19.00;64.40;;;;;;5107800;27;20049;-64
2021/09/09 00:27:48;;;;;;;3.13;1.73;;;19.10;65.90;;;;;;5086382;28;20034;-65
2021/09/09 00:30:16;;;;;;;3.33;1.92;;;19.10;65.90;;;;;;5099277;28;20015;-67
2021/09/09 00:32:43;;;;;;;3.35;2.25;;;19.20;64.50;;;;;;5106623;28;20058;-67
2021/09/09 00:35:11;;;;;;;4.15;2.30;;;19.20;66.10;;;;;;5107647;28;20351;-64
2021/09/09 00:37:38;;;;;;;5.20;1.85;;;19.30;63.40;;;;;;5105924;28;20103;-68
2021/09/09 00:40:06;;;;;;;4.07;1.95;;;19.40;64.00;;;;;;5097662;28;20084;-60
2021/09/09 00:42:34;;;;;;;4.00;1.77;;;19.40;65.10;;;;;;5103357;28;20079;-65
2021/09/09 00:45:01;;;;;;;3.65;1.90;;;19.50;65.70;;;;;;5107937;28;20039;-63
2021/09/09 00:47:28;;;;;;;2.03;1.67;;;19.50;65.00;;;;;;5109414;28;20027;-68
2021/09/09 00:49:56;;;;;;;3.80;1.80;;;19.50;65.30;;;;;;5110123;28;20111;-66
2021/09/09 00:52:23;;;;;;;4.50;2.33;;;19.60;62.20;;;;;;5109205;28;20031;-68
2021/09/09 00:54:51;;;;;;;2.45;1.95;;;19.70;62.80;;;;;;5108999;28;20016;-70
2021/09/09 00:57:18;;;;;;;3.20;2.00;;;19.70;64.40;;;;;;5109635;28;20015;-69
2021/09/09 00:59:48;;;;;;;4.97;1.60;;;19.70;61.60;;;;;;5110959;28;20020;-71
2021/09/09 01:02:15;;;;;;;3.53;1.60;;;19.80;63.30;;;;;;5109658;28;20026;-68
2021/09/09 01:04:42;;;;;;;3.47;1.90;;;19.90;59.30;;;;;;5109422;28;20099;-67
2021/09/09 01:07:10;;;;;;;5.63;2.03;;;19.90;64.20;;;;;;5108840;28;20012;-68
2021/09/09 01:09:37;;;;;;;3.28;1.65;;;19.90;58.60;;;;;;5108889;28;20016;-68
2021/09/09 01:12:05;;;;;;;7.40;1.60;;;20.00;63.80;;;;;;5108862;28;20474;-66
2021/09/09 01:14:32;;;;;;;6.10;3.35;;;19.90;63.70;;;;;;5108699;28;20027;-68
2021/09/09 01:17:00;;;;;;;5.35;2.28;;;19.80;61.30;;;;;;5109411;28;20490;-68
2021/09/09 01:19:28;;;;;;;3.67;1.90;;;19.90;59.80;;;;;;5108574;28;20157;-69
2021/09/09 01:21:55;;;;;;;3.88;2.15;;;20.00;63.50;;;;;;5090883;28;20024;-66
2021/09/09 01:24:24;;;;;;;2.45;1.63;;;20.00;59.80;;;;;;5090447;28;20028;-67
2021/09/09 01:26:52;;;;;;;2.67;1.85;;;20.00;64.00;;;;;;5108996;28;20474;-69
2021/09/09 01:29:22;;;;;;;3.30;1.60;;;20.00;63.30;;;;;;5108243;28;20579;-72
2021/09/09 01:31:50;;;;;;;4.22;1.42;;;20.10;62.20;;;;;;5108640;28;20039;-69
2021/09/09 01:34:19;;;;;;;4.15;1.98;;;20.30;61.50;;;;;;5109037;28;20114;-68
2021/09/09 01:36:47;;;;;;;3.70;1.58;;;20.20;61.90;;;;;;5108627;28;20058;-70
2021/09/09 01:39:14;;;;;;;4.07;1.40;;;20.30;61.20;;;;;;5108778;28;20107;-64
2021/09/09 01:41:42;;;;;;;5.40;1.73;;;20.40;56.80;;;;;;5109046;28;20419;-70
2021/09/09 01:44:09;;;;;;;2.95;1.60;;;20.40;59.80;;;;;;5090474;28;20035;-70
2021/09/09 01:46:37;;;;;;;4.85;1.48;;;20.50;61.10;;;;;;5108698;28;20028;-70
2021/09/09 01:49:04;;;;;;;2.80;1.85;;;20.40;60.10;;;;;;5110658;28;20034;-67
2021/09/09 01:51:32;;;;;;;2.88;1.55;;;20.60;59.90;;;;;;5094226;28;20118;-66
2021/09/09 01:54:00;;;;;;;6.53;1.85;;;20.60;60.10;;;;;;5094546;28;20024;-70
2021/09/09 01:56:27;;;;;;;2.75;1.25;;;20.50;59.80;;;;;;5112330;28;20024;-71
2021/09/09 01:58:54;;;;;;;3.55;1.60;;;20.70;59.20;;;;;;5112765;27;20027;-70
2021/09/09 02:01:23;;;;;;;2.53;1.45;;;20.60;56.60;;;;;;5113181;28;20027;-68
2021/09/09 02:03:51;;;;;;;1.98;1.13;;;20.70;58.80;;;;;;5112767;28;20023;-68
2021/09/09 02:06:19;;;;;;;4.38;1.40;;;20.60;57.50;;;;;;5112465;28;20023;-66
2021/09/09 02:08:46;;;;;;;2.70;1.40;;;20.70;56.80;;;;;;5111949;28;20153;-71
2021/09/09 02:11:15;;;;;;;2.75;1.35;;;20.70;56.60;;;;;;5111886;28;20477;-73
2021/09/09 02:13:42;;;;;;;3.83;1.23;;;20.80;58.10;;;;;;5093871;28;20031;-67
2021/09/09 02:16:09;;;;;;;2.65;1.20;;;20.90;57.00;;;;;;5114123;28;20035;-68
2021/09/09 02:18:37;;;;;;;3.20;1.52;;;20.90;57.70;;;;;;5112927;28;20023;-68
2021/09/09 02:21:05;;;;;;;4.00;1.42;;;20.90;56.60;;;;;;5112672;28;20464;-65
2021/09/09 02:23:33;;;;;;;5.53;1.02;;;21.30;51.80;;;;;;5112385;28;20708;-71
2021/09/09 02:26:00;;;;;;;3.78;1.27;;;21.30;55.00;;;;;;5112094;28;20539;-69
2021/09/09 02:28:27;;;;;;;1.75;0.90;;;21.40;51.90;;;;;;5112378;28;20164;-69
2021/09/09 02:30:55;;;;;;;3.17;1.50;;;21.50;55.10;;;;;;5112432;28;20031;-66
2021/09/09 02:33:22;;;;;;;2.92;1.02;;;21.50;50.60;;;;;;5112331;28;20020;-72
2021/09/09 02:35:50;;;;;;;3.42;1.25;;;21.80;48.40;;;;;;5111637;28;20063;-67
2021/09/09 02:38:17;;;;;;;2.65;1.33;;;21.90;54.20;;;;;;5112437;28;20112;-71
2021/09/09 02:40:45;;;;;;;2.55;1.23;;;21.70;50.80;;;;;;5111264;28;20460;-69
2021/09/09 02:43:12;;;;;;;3.13;1.25;;;21.80;50.00;;;;;;5110303;27;20047;-68
2021/09/09 02:45:39;;;;;;;4.13;1.55;;;21.70;53.50;;;;;;5110374;28;20032;-71
2021/09/09 02:48:07;;;;;;;2.10;1.00;;;21.90;52.50;;;;;;5110593;28;20023;-64
2021/09/09 02:50:34;;;;;;;3.92;1.30;;;22.00;51.00;;;;;;5091972;28;20027;-71
2021/09/09 02:53:02;;;;;;;3.72;0.98;;;21.90;52.70;;;;;;5110925;28;20477;-70
2021/09/09 02:55:29;;;;;;;1.90;1.00;;;21.90;52.50;;;;;;5110024;28;20024;-69
2021/09/09 02:57:57;;;;;;;4.55;1.25;;;21.90;52.30;;;;;;5110971;28;20012;-68
2021/09/09 03:00:24;;;;;;;3.78;0.90;;;22.00;48.40;;;;;;5109602;28;20425;-72
2021/09/09 03:02:52;;;;;;;2.67;0.98;;;22.20;48.70;;;;;;5110531;28;20658;-67
2021/09/09 03:05:19;;;;;;;2.28;1.10;;;22.20;51.10;;;;;;5110069;28;20028;-72
2021/09/09 03:07:47;;;;;;;2.13;0.88;;;22.20;50.40;;;;;;5110465;28;20028;-69
2021/09/09 03:10:14;;;;;;;3.22;1.20;;;22.30;49.70;;;;;;5110762;28;20116;-71
2021/09/09 03:12:42;;;;;;;1.23;0.80;;;22.40;50.60;;;;;;5110562;28;20462;-68
2021/09/09 03:15:10;;;;;;;2.90;0.90;;;22.40;48.70;;;;;;5110656;28;20062;-67
2021/09/09 03:17:37;;;;;;;1.10;0.85;;;22.40;48.90;;;;;;5110419;28;20020;-68
2021/09/09 03:20:05;;;;;;;2.63;1.10;;;22.20;47.60;;;;;;5110648;28;20027;-68
2021/09/09 03:22:33;;;;;;;1.90;0.77;;;22.40;49.30;;;;;;5111228;28;20019;-73
2021/09/09 03:25:00;;;;;;;3.38;1.10;;;22.30;50.20;;;;;;5110579;28;20721;-69
2021/09/09 03:27:28;;;;;;;1.42;0.85;;;22.30;46.70;;;;;;5110226;28;20024;-73
2021/09/09 03:29:55;;;;;;;2.10;0.90;;;22.60;48.40;;;;;;5110918;28;20020;-71
2021/09/09 03:32:23;;;;;;;1.50;0.95;;;22.70;48.80;;;;;;5111071;28;20028;-68
2021/09/09 03:34:50;;;;;;;0.95;0.68;;;22.70;50.00;;;;;;5110050;28;20024;-75
2021/09/09 03:37:18;;;;;;;1.75;0.80;;;22.50;50.10;;;;;;5110625;28;20539;-66
2021/09/09 03:39:45;;;;;;;1.02;0.68;;;22.40;46.30;;;;;;5109406;28;20031;-69
2021/09/09 03:42:17;;;;;;;2.15;1.00;;;22.60;48.70;;;;;;4981807;28;3021470;-66
2021/09/09 03:44:48;;;;;;;4.13;1.00;;;22.60;46.90;;;;;;5074405;28;20028;-68
2021/09/09 03:47:15;;;;;;;1.63;0.70;;;22.60;49.30;;;;;;5083395;28;20020;-70
2021/09/09 03:49:43;;;;;;;2.15;0.70;;;22.50;49.00;;;;;;5089053;28;20032;-69
2021/09/09 03:52:10;;;;;;;1.00;0.80;;;22.60;48.50;;;;;;5085753;28;20044;-65
2021/09/09 03:54:38;;;;;;;1.48;0.70;;;22.70;48.50;;;;;;5085221;28;20055;-68
2021/09/09 03:57:06;;;;;;;3.45;1.13;;;22.80;48.40;;;;;;5080763;28;20024;-67
2021/09/09 03:59:33;;;;;;;0.90;0.80;;;22.80;47.80;;;;;;5088953;28;20425;-62
2021/09/09 04:02:38;;;;;;;10.13;1.25;;;22.80;48.10;;;;;;5087343;28;20030;-58
2021/09/09 04:05:06;;;;;;;2.17;1.00;;;22.70;48.30;;;;;;5080724;28;20032;-66
2021/09/09 04:07:34;;;;;;;4.53;0.90;;;22.80;48.40;;;;;;5082291;28;20027;-66
2021/09/09 04:10:01;;;;;;;2.42;1.08;;;22.70;48.80;;;;;;5084172;28;20028;-63
2021/09/09 04:12:29;;;;;;;2.40;1.52;;;22.80;45.70;;;;;;5083895;28;20036;-62
2021/09/09 04:14:58;;;;;;;3.97;0.90;;;22.80;48.20;;;;;;5079786;28;20446;-68
2021/09/09 04:17:25;;;;;;;0.95;0.80;;;22.90;46.90;;;;;;5080621;28;20553;-68
2021/09/09 04:19:53;;;;;;;3.65;1.23;;;22.90;48.10;;;;;;5088396;28;20044;-71
2021/09/09 04:22:20;;;;;;;1.95;1.10;;;23.00;47.80;;;;;;5088440;28;20107;-67
2021/09/09 04:24:47;;;;;;;2.00;1.15;;;23.00;47.00;;;;;;5084964;28;20031;-69
2021/09/09 04:27:15;;;;;;;1.90;1.20;;;23.20;47.80;;;;;;5079090;28;20027;-64
2021/09/09 04:29:42;;;;;;;2.63;1.02;;;23.10;46.90;;;;;;5086074;28;20102;-66
2021/09/09 04:32:10;;;;;;;4.60;1.10;;;23.20;47.70;;;;;;5087586;28;20024;-63
2021/09/09 04:34:37;;;;;;;1.63;1.27;;;23.30;48.10;;;;;;5086113;28;20032;-62
2021/09/09 04:37:05;;;;;;;2.17;1.20;;;23.20;48.40;;;;;;5077614;28;20093;-64
2021/09/09 04:39:32;;;;;;;1.70;1.00;;;23.20;48.20;;;;;;5087154;28;20057;-69
2021/09/09 04:42:00;;;;;;;2.17;1.20;;;23.20;48.20;;;;;;5092718;28;20036;-72
2021/09/09 04:44:27;;;;;;;1.52;0.90;;;23.40;47.50;;;;;;5106040;28;20491;-63
2021/09/09 04:46:55;;;;;;;1.52;1.20;;;23.40;47.70;;;;;;5101457;28;20024;-62
2021/09/09 04:49:22;;;;;;;1.63;0.93;;;23.50;47.10;;;;;;5107498;28;20041;-56
2021/09/09 04:55:06;;;;;;;1.20;1.00;;;23.50;47.70;;;;;;5097460;28;20356;-61
2021/09/09 04:57:34;;;;;;;5.03;1.42;;;23.50;46.40;;;;;;5103084;28;20084;-62
2021/09/09 05:00:01;;;;;;;3.13;1.17;;;23.60;46.30;;;;;;5107937;28;20157;-63
2021/09/09 05:02:29;;;;;;;2.20;1.10;;;23.50;47.60;;;;;;5103809;28;20380;-61
2021/09/09 05:04:56;;;;;;;3.38;1.15;;;23.70;46.10;;;;;;5106669;28;20418;-62
2021/09/09 05:07:24;;;;;;;1.63;1.20;;;23.70;47.50;;;;;;5094854;28;20042;-66
2021/09/09 05:09:51;;;;;;;2.22;1.05;;;23.60;47.90;;;;;;5107244;28;20028;-63
2021/09/09 05:12:19;;;;;;;1.92;1.00;;;23.50;48.00;;;;;;5107230;28;20032;-71
2021/09/09 05:14:46;;;;;;;2.17;1.00;;;23.50;48.00;;;;;;5105561;28;20031;-63
2021/09/09 05:17:14;;;;;;;2.47;1.08;;;23.50;45.20;;;;;;5098824;28;20028;-65
2021/09/09 05:19:41;;;;;;;1.60;0.90;;;23.70;46.60;;;;;;5107570;28;20024;-63
2021/09/09 05:22:08;;;;;;;1.55;0.85;;;23.70;47.40;;;;;;5107372;28;20038;-63
2021/09/09 05:24:36;;;;;;;1.77;0.95;;;23.70;47.20;;;;;;5103106;28;20103;-66
2021/09/09 05:27:04;;;;;;;1.08;0.85;;;23.80;47.10;;;;;;5100291;28;20144;-65
2021/09/09 05:29:31;;;;;;;1.30;0.80;;;23.70;47.90;;;;;;5095983;28;20510;-65
2021/09/09 05:31:58;;;;;;;0.88;0.65;;;23.90;47.50;;;;;;5094187;28;20044;-69
2021/09/09 05:34:26;;;;;;;1.15;0.93;;;23.80;47.70;;;;;;5106420;28;20496;-70
2021/09/09 05:36:56;;;;;;;1.80;1.20;;;23.70;47.80;;;;;;5104834;28;20195;-71
2021/09/09 05:39:24;;;;;;;1.20;0.80;;;23.80;47.20;;;;;;5106874;28;20019;-59
2021/09/09 05:41:51;;;;;;;1.85;1.00;;;23.80;47.20;;;;;;5086457;28;20071;-65
2021/09/09 05:44:18;;;;;;;1.92;1.00;;;23.90;47.70;;;;;;5085870;28;20024;-70
2021/09/09 05:46:46;;;;;;;0.70;0.68;;;23.90;47.00;;;;;;5078113;28;20020;-65
2021/09/09 05:49:13;;;;;;;1.00;0.90;;;23.90;47.70;;;;;;5086841;28;20554;-65
2021/09/09 05:51:41;;;;;;;3.13;0.80;;;23.80;47.90;;;;;;5083352;28;20044;-70
2021/09/09 05:54:08;;;;;;;1.48;1.05;;;23.90;47.70;;;;;;5084507;28;20386;-66
2021/09/09 05:56:36;;;;;;;1.27;0.93;;;23.80;47.10;;;;;;5076957;28;20028;-66
2021/09/09 05:59:04;;;;;;;2.85;1.25;;;23.80;48.30;;;;;;5085739;28;20039;-69
2021/09/09 06:01:32;;;;;;;2.90;1.20;;;23.70;47.10;;;;;;5084991;28;20032;-68
2021/09/09 06:04:03;;;;;;;1.05;0.88;;;23.70;47.20;;;;;;5083549;28;20100;-69
2021/09/09 06:06:34;;;;;;;1.33;0.90;;;23.60;48.50;;;;;;5079080;28;20639;-68
2021/09/09 06:09:05;;;;;;;3.95;1.00;;;23.50;48.70;;;;;;5080746;28;20028;-66
2021/09/09 06:11:33;;;;;;;1.20;0.75;;;23.50;48.80;;;;;;5082992;28;20032;-70
2021/09/09 06:14:03;;;;;;;1.40;0.90;;;23.50;49.30;;;;;;5082620;28;20081;-68
2021/09/09 06:16:31;;;;;;;1.45;1.00;;;23.40;49.40;;;;;;5080179;28;20091;-68
2021/09/09 06:19:00;;;;;;;0.88;0.75;;;23.30;49.50;;;;;;5083959;28;20142;-66
2021/09/09 06:21:27;;;;;;;1.33;0.85;;;23.10;49.90;;;;;;5086355;28;20008;-68
2021/09/09 06:23:55;;;;;;;2.63;0.88;;;23.00;50.10;;;;;;5082622;28;20020;-68
2021/09/09 06:26:22;;;;;;;1.15;1.02;;;23.00;50.10;;;;;;5076429;28;20028;-65
2021/09/09 06:28:50;;;;;;;1.42;0.90;;;23.00;48.90;;;;;;5085323;28;20027;-69
2021/09/09 06:31:17;;;;;;;3.05;1.13;;;22.90;48.40;;;;;;5086249;28;20054;-68
2021/09/09 06:33:44;;;;;;;6.50;0.90;;;22.90;46.70;;;;;;5083383;28;20341;-67
2021/09/09 06:36:12;;;;;;;1.27;1.10;;;22.80;48.90;;;;;;5082931;28;20125;-71
2021/09/09 06:38:39;;;;;;;2.83;0.75;;;22.70;49.70;;;;;;5087584;28;20020;-68
2021/09/09 06:41:07;;;;;;;1.35;0.90;;;22.70;49.70;;;;;;5087413;28;20031;-69
2021/09/09 06:43:34;;;;;;;2.80;0.80;;;22.60;47.50;;;;;;5088852;28;20402;-67
2021/09/09 06:46:01;;;;;;;1.20;0.90;;;22.50;49.80;;;;;;5080640;28;20033;-67
2021/09/09 06:48:29;;;;;;;1.23;1.00;;;22.50;49.80;;;;;;5088209;28;20101;-66
2021/09/09 06:50:56;;;;;;;3.92;0.95;;;22.50;49.30;;;;;;5089234;28;20081;-66
2021/09/09 06:53:24;;;;;;;2.38;0.75;;;22.50;48.80;;;;;;5087840;28;20039;-69
2021/09/09 06:55:51;;;;;;;0.65;0.60;;;22.30;50.00;;;;;;5084230;28;20027;-65
2021/09/09 06:58:19;;;;;;;2.25;0.75;;;22.30;50.40;;;;;;5088399;28;20035;-70
2021/09/09 07:00:46;;;;;;;2.35;0.82;;;22.30;49.60;;;;;;5087249;28;20074;-69
2021/09/09 07:03:14;;;;;;;1.15;0.80;;;22.10;48.40;;;;;;5090592;28;20032;-64
2021/09/09 07:05:41;;;;;;;2.58;1.00;;;22.00;50.50;;;;;;5091063;28;20028;-67
2021/09/09 07:08:09;;;;;;;0.95;0.75;;;22.00;48.80;;;;;;5091077;28;20031;-69
2021/09/09 07:10:36;;;;;;;1.98;1.10;;;21.90;49.30;;;;;;5090893;28;20023;-68
2021/09/09 07:13:03;;;;;;;1.17;0.90;;;21.90;50.40;;;;;;5089815;28;20036;-69
2021/09/09 07:15:31;;;;;;;1.70;0.93;;;21.80;48.70;;;;;;5091207;28;20024;-68
2021/09/09 07:17:58;;;;;;;1.67;1.27;;;21.80;49.70;;;;;;5090999;28;20059;-70
2021/09/09 07:20:25;;;;;;;0.98;0.85;;;21.80;50.20;;;;;;5089819;28;20020;-70
2021/09/09 07:22:53;;;;;;;1.00;0.80;;;21.80;49.90;;;;;;5090546;28;20050;-69
2021/09/09 07:25:20;;;;;;;1.75;0.70;;;21.70;50.70;;;;;;5090367;28;20024;-70
2021/09/09 07:27:48;;;;;;;1.10;0.75;;;21.60;51.10;;;;;;5090484;28;20027;-69
2021/09/09 07:30:15;;;;;;;2.95;0.70;;;21.60;50.40;;;;;;5090042;28;20359;-69
2021/09/09 07:32:42;;;;;;;0.70;0.70;;;21.60;51.50;;;;;;5090473;28;20032;-69
2021/09/09 07:35:10;;;;;;;0.95;0.80;;;21.50;51.00;;;;;;5090104;28;20089;-70
2021/09/09 07:37:38;;;;;;;1.65;0.73;;;21.40;50.70;;;;;;5090556;28;20020;-71
2021/09/09 07:40:08;;;;;;;2.42;0.80;;;21.50;48.20;;;;;;5091559;28;20170;-69
2021/09/09 07:42:35;;;;;;;1.67;0.77;;;21.40;51.10;;;;;;5088576;28;20043;-66
2021/09/09 07:45:05;;;;;;;2.78;0.88;;;21.40;49.50;;;;;;5089720;28;20032;-66
2021/09/09 07:47:32;;;;;;;3.65;0.90;;;21.40;49.20;;;;;;5089224;28;20028;-69
2021/09/09 07:50:00;;;;;;;0.80;0.80;;;21.30;51.60;;;;;;5090605;28;20495;-67
2021/09/09 07:52:27;;;;;;;0.98;0.82;;;21.20;49.20;;;;;;5091877;28;20039;-74
2021/09/09 07:54:54;;;;;;;4.55;0.85;;;21.20;51.00;;;;;;5091850;28;20024;-71
2021/09/09 07:57:22;;;;;;;1.30;0.95;;;21.10;52.10;;;;;;5090642;28;20028;-72
2021/09/09 07:59:49;;;;;;;0.90;0.90;;;21.10;50.10;;;;;;5093969;28;20459;-67
2021/09/09 08:02:17;;;;;;;1.15;0.90;;;21.10;50.50;;;;;;5091947;28;20023;-69
2021/09/09 08:04:44;;;;;;;1.75;0.98;;;21.10;50.90;;;;;;5082859;28;20228;-68
2021/09/09 08:07:15;;;;;;;2.83;0.90;;;21.10;51.60;;;;;;5086016;28;20127;-72
2021/09/09 08:09:42;;;;;;;1.13;0.70;;;21.00;52.10;;;;;;5083748;28;20047;-71
2021/09/09 08:12:09;;;;;;;1.98;1.30;;;21.00;50.60;;;;;;5087510;28;20693;-71
2021/09/09 08:14:37;;;;;;;0.70;0.70;;;21.00;52.20;;;;;;5084553;28;20375;-69
2021/09/09 08:17:05;;;;;;;1.33;1.02;;;21.00;52.20;;;;;;5086220;28;20043;-71
2021/09/09 08:19:32;;;;;;;1.55;0.77;;;20.90;52.10;;;;;;5078664;28;20028;-67
2021/09/09 08:22:00;;;;;;;0.98;0.50;;;20.90;52.20;;;;;;5084958;28;20019;-67
2021/09/09 08:24:27;;;;;;;0.75;0.75;;;20.90;52.60;;;;;;5087843;28;20874;-68
2021/09/09 08:26:55;;;;;;;1.15;0.80;;;20.90;52.40;;;;;;5086355;28;20016;-71
2021/09/09 08:29:22;;;;;;;2.08;0.85;;;20.90;52.80;;;;;;5079903;28;20020;-68
2021/09/09 08:31:50;;;;;;;1.25;0.90;;;20.90;52.90;;;;;;5088750;28;20170;-75
2021/09/09 08:34:17;;;;;;;2.72;0.82;;;20.80;53.20;;;;;;5089418;28;20388;-75
2021/09/09 08:36:44;;;;;;;1.42;0.88;;;20.80;53.10;;;;;;5087349;28;20211;-74
2021/09/09 08:39:13;;;;;;;1.48;0.75;;;20.70;53.30;;;;;;5084431;28;20024;-72
2021/09/09 08:41:42;;;;;;;1.25;0.90;;;20.70;53.40;;;;;;5087020;28;20035;-72
2021/09/09 08:44:11;;;;;;;1.00;0.90;;;20.80;53.00;;;;;;5107827;28;20099;-69
2021/09/09 08:46:39;;;;;;;1.27;0.82;;;20.70;53.70;;;;;;5083307;28;20019;-73
2021/09/09 08:49:06;;;;;;;1.23;0.88;;;20.70;53.30;;;;;;5097807;28;20358;-70
2021/09/09 08:51:33;;;;;;;1.25;0.75;;;20.70;53.70;;;;;;5107829;28;20032;-64
2021/09/09 08:54:02;;;;;;;2.05;1.13;;;20.60;54.00;;;;;;5101175;28;20531;-69
2021/09/09 08:56:30;;;;;;;1.02;0.75;;;20.60;54.00;;;;;;5102230;28;20393;-70
2021/09/09 08:58:57;;;;;;;1.23;1.00;;;20.60;54.30;;;;;;5100563;28;20031;-67
2021/09/09 09:01:25;;;;;;;0.88;0.85;;;20.50;54.00;;;;;;5104134;28;20020;-71
2021/09/09 09:03:57;;;;;;;0.90;0.70;;;20.50;54.00;;;;;;5101909;28;20026;-65
2021/09/09 09:06:25;;;;;;;2.78;0.90;;;20.50;54.30;;;;;;5084282;28;20034;-71
2021/09/09 09:09:08;;;;;;;0.82;0.82;;;20.50;54.60;;;;;;5079844;28;20038;-70
2021/09/09 09:11:45;;;;;;;1.80;0.93;;;20.50;53.70;;;;;;5103373;28;20606;-69
2021/09/09 09:14:20;;;;;;;1.40;1.10;;;20.50;51.80;;;;;;5102805;28;20103;-72
2021/09/09 09:16:54;;;;;;;1.42;0.93;;;20.50;53.80;;;;;;5104349;28;20382;-72
2021/09/09 09:19:30;;;;;;;1.55;1.10;;;20.50;52.50;;;;;;5099226;28;20404;-70
2021/09/09 09:22:03;;;;;;;1.42;0.80;;;20.50;51.90;;;;;;5108139;28;20054;-68
2021/09/09 09:24:52;;;;;;;2.60;1.50;;;20.50;54.20;;;;;;5104684;28;20016;-69
2021/09/09 09:27:21;;;;;;;2.42;1.95;;;20.40;53.90;;;;;;5088844;28;20027;-69
2021/09/09 09:30:08;;;;;;;3.40;2.13;;;20.40;53.50;;;;;;5082267;28;20019;-68
2021/09/09 09:32:45;;;;;;;3.28;1.85;;;20.30;55.20;;;;;;5107361;28;20459;-71
2021/09/09 09:35:15;;;;;;;3.40;2.50;;;20.30;55.30;;;;;;5103771;28;20024;-69
2021/09/09 09:38:43;;;;;;;6.97;2.35;;;20.20;54.90;;;;;;5104990;28;20077;-69
2021/09/09 09:41:23;;;;;;;2.78;1.92;;;20.20;54.40;;;;;;5062444;28;20042;-71
2021/09/09 09:44:00;;;;;;;4.18;2.63;;;20.20;55.90;;;;;;5102450;28;20032;-69
2021/09/09 09:47:08;;;;;;;3.47;2.22;;;20.10;53.10;;;;;;5102040;28;20096;-73
2021/09/09 09:49:47;;;;;;;1.85;1.35;;;20.10;52.50;;;;;;5002645;28;20408;-70
2021/09/09 09:52:26;;;;;;;3.63;1.80;;;20.10;55.30;;;;;;5034285;28;20036;-71
2021/09/09 09:55:19;;;;;;;2.80;1.70;;;20.10;54.70;;;;;;5111621;28;20046;-73
2021/09/09 09:57:57;;;;;;;2.88;1.50;;;20.10;54.90;;;;;;5105659;28;20118;-65
2021/09/09 10:00:25;;;;;;;3.35;1.40;;;20.10;54.40;;;;;;5109176;28;20054;-65
2021/09/09 10:02:55;;;;;;;1.95;1.20;;;20.00;51.00;;;;;;5110148;28;20040;-70
2021/09/09 10:05:23;;;;;;;2.90;1.73;;;20.00;52.80;;;;;;5109285;28;20023;-65
2021/09/09 10:07:51;;;;;;;2.55;1.50;;;20.00;53.90;;;;;;5109318;28;20023;-70
2021/09/09 10:10:19;;;;;;;2.17;1.50;;;20.00;49.50;;;;;;5111880;28;20024;-69
2021/09/09 10:12:50;;;;;;;1.88;1.45;;;20.00;53.80;;;;;;5113854;28;20115;-66
2021/09/09 10:15:20;;;;;;;2.63;1.60;;;20.00;54.90;;;;;;5096024;28;20030;-73
2021/09/09 10:17:52;;;;;;;2.85;2.00;;;20.00;54.60;;;;;;5115428;28;20508;-70
2021/09/09 10:20:39;;;;;;;16.58;5.32;;;20.00;54.20;;;;;;5099629;28;20024;-59
2021/09/09 10:23:09;;;;;;;68.47;34.58;;;20.00;50.70;;;;;;5111067;28;20020;-67
2021/09/09 10:25:54;;;;;;;90.75;44.25;;;20.00;54.20;;;;;;5105133;28;20710;-64
2021/09/09 10:28:36;;;;;;;113.57;53.92;;;20.00;52.10;;;;;;5109642;28;20032;-71
2021/09/09 10:31:09;;;;;;;130.30;65.60;;;20.10;52.90;;;;;;5107926;28;20030;-64
2021/09/09 10:33:42;;;;;;;117.18;56.20;;;20.10;53.30;;;;;;5110106;28;20107;-71
2021/09/09 10:36:40;;;;;;;128.50;62.25;;;20.10;50.20;;;;;;5104573;28;20028;-66
2021/09/09 10:39:20;;;;;;;138.35;66.97;;;20.10;52.10;;;;;;5100437;28;20035;-66
2021/09/09 10:41:48;;;;;;;115.40;55.90;;;20.10;54.40;;;;;;5108290;28;20046;-71
2021/09/09 10:44:16;;;;;;;119.00;59.45;;;20.10;52.30;;;;;;5110356;28;20032;-72
2021/09/09 10:46:47;;;;;;;114.35;57.80;;;20.00;54.00;;;;;;5104958;28;20359;-67
2021/09/09 10:49:22;;;;;;;138.73;67.55;;;20.10;52.90;;;;;;5110369;28;20030;-65
2021/09/09 10:52:14;;;;;;;113.82;55.58;;;20.00;54.70;;;;;;5108549;27;20050;-64
2021/09/09 10:55:02;;;;;;;114.60;60.92;;;20.00;54.60;;;;;;5105979;28;20038;-69
2021/09/09 10:57:30;;;;;;;111.70;56.53;;;20.00;53.90;;;;;;5102002;28;20043;-71
2021/09/09 10:59:58;;;;;;;129.48;63.35;;;20.00;50.10;;;;;;5109494;28;20035;-68
2021/09/09 11:02:26;;;;;;;111.00;56.50;;;20.00;54.50;;;;;;5108529;28;20065;-68
2021/09/09 11:05:00;;;;;;;107.88;52.20;;;19.90;54.80;;;;;;5109845;28;20778;-66
2021/09/09 11:07:31;;;;;;;105.22;54.42;;;19.90;53.80;;;;;;5104996;28;20077;-67
2021/09/09 11:10:08;;;;;;;117.50;55.13;;;19.80;54.90;;;;;;5111051;28;20036;-66
2021/09/09 11:12:43;;;;;;;129.50;63.72;;;19.80;55.20;;;;;;5107346;28;20070;-62
2021/09/09 11:15:14;;;;;;;115.28;59.60;;;19.70;55.70;;;;;;5107975;28;20424;-64
2021/09/09 11:17:56;;;;;;;96.00;47.45;;;19.70;55.50;;;;;;5102174;28;20023;-70
2021/09/09 11:20:34;;;;;;;121.40;62.83;;;19.70;54.40;;;;;;5105639;28;20024;-71
2021/09/09 11:23:51;;;;;;;115.35;56.15;;;19.70;56.10;;;;;;5111388;28;20031;-69
2021/09/09 11:29:48;;;;;;;122.68;63.90;;;19.70;55.30;;;;;;5018259;28;20063;-71
2021/09/09 11:36:57;;;;;;;128.77;64.85;;;19.70;56.30;;;;;;4920835;28;20122;-65
2021/09/09 11:39:58;;;;;;;92.55;47.22;;;19.70;56.20;;;;;;5009339;28;20037;-64
2021/09/09 11:42:26;;;;;;;67.28;36.55;;;19.70;52.20;;;;;;4970374;28;20143;-68
2021/09/09 11:44:59;;;;;;;113.25;56.70;;;19.70;49.90;;;;;;5004662;28;20032;-67
2021/09/09 11:47:28;;;;;;;128.10;69.32;;;19.70;53.80;;;;;;5057737;28;20039;-68
2021/09/09 11:50:06;;;;;;;132.88;67.75;;;19.70;55.40;;;;;;5087731;28;20108;-69
2021/09/09 11:52:34;;;;;;;115.47;58.22;;;19.70;56.20;;;;;;5108145;28;20482;-74
2021/09/09 11:55:36;;;;;;;97.80;52.10;;;19.70;52.90;;;;;;5112036;28;20036;-71
2021/09/09 11:58:29;;;;;;;;;;;19.70;55.30;;;;;;5097826;28;20020;-71
2021/09/09 12:00:58;;;;;;;118.70;64.10;;;19.60;56.30;;;;;;5103751;28;19949;-69
2021/09/09 12:03:25;;;;;;;124.35;65.90;;;19.60;56.70;;;;;;5109429;28;20355;-70
2021/09/09 12:05:54;;;;;;;119.88;65.47;;;19.60;56.90;;;;;;5097860;28;20105;-64
2021/09/09 12:08:23;;;;;;;106.63;58.35;;;19.60;56.50;;;;;;5107237;28;20042;-68
2021/09/09 12:10:51;;;;;;;132.45;66.50;;;19.60;55.10;;;;;;5108428;28;20027;-64
2021/09/09 12:13:33;;;;;;;121.70;67.95;;;19.60;57.10;;;;;;5109989;28;20373;-70
2021/09/09 12:16:23;;;;;;;121.47;68.05;;;19.50;56.20;;;;;;5103730;28;20031;-70
2021/09/09 12:19:11;;;;;;;117.43;63.33;;;19.50;56.40;;;;;;5095094;28;20043;-74
2021/09/09 12:21:55;;;;;;;121.68;65.75;;;19.50;56.90;;;;;;5107948;28;20746;-70
2021/09/09 12:24:32;;;;;;;119.97;66.63;;;19.40;57.50;;;;;;5109135;28;20625;-70
2021/09/09 12:27:04;;;;;;;126.07;66.82;;;19.40;57.40;;;;;;5101259;28;20042;-72
2021/09/09 12:29:42;;;;;;;130.10;68.97;;;19.40;57.50;;;;;;5107173;28;20020;-65
2021/09/09 12:32:31;;;;;;;129.48;68.03;;;19.30;57.70;;;;;;5101125;28;20065;-63
2021/09/09 12:35:20;;;;;;;120.72;63.60;;;19.30;57.80;;;;;;5108389;28;20027;-65
2021/09/09 12:38:12;;;;;;;118.65;66.40;;;19.30;55.80;;;;;;5099706;28;20110;-69
2021/09/09 12:40:42;;;;;;;122.38;65.90;;;19.30;57.40;;;;;;5108985;28;20019;-66
2021/09/09 12:43:34;;;;;;;124.80;67.95;;;19.20;57.60;;;;;;5109856;28;20044;-74
2021/09/09 12:46:03;;;;;;;130.13;69.65;;;19.20;57.90;;;;;;5107945;28;20027;-73
2021/09/09 12:48:32;;;;;;;118.53;65.80;;;19.10;58.00;;;;;;5109507;28;20052;-70
2021/09/09 12:51:14;;;;;;;105.20;58.55;;;19.10;57.20;;;;;;5108730;28;20046;-69
2021/09/09 12:53:41;;;;;;;129.18;67.93;;;19.10;57.10;;;;;;5075107;28;20362;-71
2021/09/09 12:56:11;;;;;;;107.85;59.53;;;19.10;57.90;;;;;;5109665;28;20046;-71
2021/09/09 12:58:38;;;;;;;121.07;64.47;;;19.10;57.50;;;;;;5074454;28;20023;-67
2021/09/09 13:01:06;;;;;;;84.70;48.28;;;19.00;58.00;;;;;;5109739;28;20481;-67
2021/09/09 13:03:34;;;;;;;79.78;42.47;;;19.00;56.40;;;;;;5109361;28;20108;-71
2021/09/09 13:06:03;;;;;;;51.35;27.08;;;19.00;52.40;;;;;;5109873;28;20059;-73
2021/09/09 13:08:31;;;;;;;75.35;42.35;;;19.00;53.20;;;;;;5111577;28;20042;-69